sensor_id;sensor_type;location;lat;lon;timestamp;temperature;humidity
4840;DHT22;2434;48.486;7.964;2024-03-22T00:02:10;12.80;59.90
4840;DHT22;2434;48.486;7.964;2024-03-22T00:04:36;12.80;60.00
4840;DHT22;2434;48.486;7.964;2024-03-22T00:07:05;12.80;59.80
4840;DHT22;2434;48.486;7.964;2024-03-22T00:09:31;12.80;59.70
4840;DHT22;2434;48.486;7.964;2024-03-22T00:11:59;12.80;59.90
4840;DHT22;2434;48.486;7.964;2024-03-22T00:14:25;12.70;59.80
4840;DHT22;2434;48.486;7.964;2024-03-22T00:16:52;12.70;59.70
4840;DHT22;2434;48.486;7.964;2024-03-22T00:19:19;12.70;59.90
4840;DHT22;2434;48.486;7.964;2024-03-22T00:21:46;12.60;59.90
4840;DHT22;2434;48.486;7.964;2024-03-22T00:24:13;12.60;60.20
4840;DHT22;2434;48.486;7.964;2024-03-22T00:26:40;12.60;60.30
4840;DHT22;2434;48.486;7.964;2024-03-22T00:29:14;12.60;60.70
4840;DHT22;2434;48.486;7.964;2024-03-22T00:31:41;12.50;61.20
4840;DHT22;2434;48.486;7.964;2024-03-22T00:34:08;12.40;61.00
4840;DHT22;2434;48.486;7.964;2024-03-22T00:36:35;12.40;61.10
4840;DHT22;2434;48.486;7.964;2024-03-22T00:39:01;12.50;61.30
4840;DHT22;2434;48.486;7.964;2024-03-22T00:41:30;12.50;61.10
4840;DHT22;2434;48.486;7.964;2024-03-22T00:43:56;12.50;61.30
4840;DHT22;2434;48.486;7.964;2024-03-22T00:46:23;12.50;61.30
4840;DHT22;2434;48.486;7.964;2024-03-22T00:48:50;12.50;61.10
4840;DHT22;2434;48.486;7.964;2024-03-22T00:51:17;12.50;60.90
4840;DHT22;2434;48.486;7.964;2024-03-22T00:53:43;12.40;60.70
4840;DHT22;2434;48.486;7.964;2024-03-22T00:56:10;12.40;61.10
4840;DHT22;2434;48.486;7.964;2024-03-22T00:58:37;12.40;61.10
4840;DHT22;2434;48.486;7.964;2024-03-22T01:01:05;12.30;61.20
4840;DHT22;2434;48.486;7.964;2024-03-22T01:03:32;12.40;61.20
4840;DHT22;2434;48.486;7.964;2024-03-22T01:05:58;12.40;61.20
4840;DHT22;2434;48.486;7.964;2024-03-22T01:08:25;12.30;61.40
4840;DHT22;2434;48.486;7.964;2024-03-22T01:10:51;12.20;61.60
4840;DHT22;2434;48.486;7.964;2024-03-22T01:13:18;12.20;62.00
4840;DHT22;2434;48.486;7.964;2024-03-22T01:15:46;12.20;62.20
4840;DHT22;2434;48.486;7.964;2024-03-22T01:18:13;12.20;62.20
4840;DHT22;2434;48.486;7.964;2024-03-22T01:20:39;12.20;62.10
4840;DHT22;2434;48.486;7.964;2024-03-22T01:23:08;12.20;62.30
4840;DHT22;2434;48.486;7.964;2024-03-22T01:25:34;12.20;61.90
4840;DHT22;2434;48.486;7.964;2024-03-22T01:28:01;12.20;61.70
4840;DHT22;2434;48.486;7.964;2024-03-22T01:30:27;12.20;61.70
4840;DHT22;2434;48.486;7.964;2024-03-22T01:32:57;12.20;61.30
4840;DHT22;2434;48.486;7.964;2024-03-22T01:35:23;12.20;61.40
4840;DHT22;2434;48.486;7.964;2024-03-22T01:37:50;12.10;61.60
4840;DHT22;2434;48.486;7.964;2024-03-22T01:40:16;12.10;61.50
4840;DHT22;2434;48.486;7.964;2024-03-22T01:42:43;12.10;62.30
4840;DHT22;2434;48.486;7.964;2024-03-22T01:45:11;12.10;61.90
4840;DHT22;2434;48.486;7.964;2024-03-22T01:47:40;12.10;61.40
4840;DHT22;2434;48.486;7.964;2024-03-22T01:50:09;12.10;61.70
4840;DHT22;2434;48.486;7.964;2024-03-22T01:52:38;12.00;61.40
4840;DHT22;2434;48.486;7.964;2024-03-22T01:55:05;12.00;61.10
4840;DHT22;2434;48.486;7.964;2024-03-22T01:57:34;12.10;60.80
4840;DHT22;2434;48.486;7.964;2024-03-22T02:00:00;12.10;60.50
4840;DHT22;2434;48.486;7.964;2024-03-22T02:02:27;12.10;60.70
4840;DHT22;2434;48.486;7.964;2024-03-22T02:04:53;12.10;60.50
4840;DHT22;2434;48.486;7.964;2024-03-22T02:07:22;12.10;61.40
4840;DHT22;2434;48.486;7.964;2024-03-22T02:09:48;12.00;60.50
4840;DHT22;2434;48.486;7.964;2024-03-22T02:12:15;12.10;60.30
4840;DHT22;2434;48.486;7.964;2024-03-22T02:14:42;12.00;60.00
4840;DHT22;2434;48.486;7.964;2024-03-22T02:17:09;12.10;59.60
4840;DHT22;2434;48.486;7.964;2024-03-22T02:19:35;12.10;59.60
4840;DHT22;2434;48.486;7.964;2024-03-22T02:22:03;12.10;59.50
4840;DHT22;2434;48.486;7.964;2024-03-22T02:24:30;12.10;59.50
4840;DHT22;2434;48.486;7.964;2024-03-22T02:26:57;12.10;59.40
4840;DHT22;2434;48.486;7.964;2024-03-22T02:29:23;12.10;59.60
4840;DHT22;2434;48.486;7.964;2024-03-22T02:31:50;12.10;59.50
4840;DHT22;2434;48.486;7.964;2024-03-22T02:34:16;12.10;59.50
4840;DHT22;2434;48.486;7.964;2024-03-22T02:36:44;12.10;59.50
4840;DHT22;2434;48.486;7.964;2024-03-22T02:39:10;12.10;59.50
4840;DHT22;2434;48.486;7.964;2024-03-22T02:41:38;12.10;59.40
4840;DHT22;2434;48.486;7.964;2024-03-22T02:44:04;12.10;59.50
4840;DHT22;2434;48.486;7.964;2024-03-22T02:46:31;12.10;59.60
4840;DHT22;2434;48.486;7.964;2024-03-22T02:48:58;12.10;59.40
4840;DHT22;2434;48.486;7.964;2024-03-22T02:51:25;12.10;59.40
4840;DHT22;2434;48.486;7.964;2024-03-22T02:53:51;12.10;59.40
4840;DHT22;2434;48.486;7.964;2024-03-22T02:56:18;12.10;59.70
4840;DHT22;2434;48.486;7.964;2024-03-22T02:58:46;12.20;60.50
4840;DHT22;2434;48.486;7.964;2024-03-22T03:01:13;12.20;60.60
4840;DHT22;2434;48.486;7.964;2024-03-22T03:03:39;12.20;60.10
4840;DHT22;2434;48.486;7.964;2024-03-22T03:06:06;12.20;60.10
4840;DHT22;2434;48.486;7.964;2024-03-22T03:08:32;12.20;59.90
4840;DHT22;2434;48.486;7.964;2024-03-22T03:10:59;12.20;60.60
4840;DHT22;2434;48.486;7.964;2024-03-22T03:13:25;12.20;60.80
4840;DHT22;2434;48.486;7.964;2024-03-22T03:15:56;12.20;60.70
4840;DHT22;2434;48.486;7.964;2024-03-22T03:18:23;12.30;60.60
4840;DHT22;2434;48.486;7.964;2024-03-22T03:20:50;12.30;60.20
4840;DHT22;2434;48.486;7.964;2024-03-22T03:23:16;12.30;60.00
4840;DHT22;2434;48.486;7.964;2024-03-22T03:25:43;12.30;60.60
4840;DHT22;2434;48.486;7.964;2024-03-22T03:28:09;12.30;61.30
4840;DHT22;2434;48.486;7.964;2024-03-22T03:30:38;12.30;61.90
4840;DHT22;2434;48.486;7.964;2024-03-22T03:33:06;12.30;62.00
4840;DHT22;2434;48.486;7.964;2024-03-22T03:35:33;12.30;61.90
4840;DHT22;2434;48.486;7.964;2024-03-22T03:37:59;12.30;61.60
4840;DHT22;2434;48.486;7.964;2024-03-22T03:40:26;12.30;61.50
4840;DHT22;2434;48.486;7.964;2024-03-22T03:42:53;12.30;61.60
4840;DHT22;2434;48.486;7.964;2024-03-22T03:45:20;12.30;61.90
4840;DHT22;2434;48.486;7.964;2024-03-22T03:47:46;12.30;61.50
4840;DHT22;2434;48.486;7.964;2024-03-22T03:50:15;12.30;61.50
4840;DHT22;2434;48.486;7.964;2024-03-22T03:52:41;12.30;61.10
4840;DHT22;2434;48.486;7.964;2024-03-22T03:55:08;12.30;61.10
4840;DHT22;2434;48.486;7.964;2024-03-22T03:57:34;12.30;61.30
4840;DHT22;2434;48.486;7.964;2024-03-22T04:00:02;12.30;61.50
4840;DHT22;2434;48.486;7.964;2024-03-22T04:02:28;12.30;62.10
4840;DHT22;2434;48.486;7.964;2024-03-22T04:04:55;12.20;61.30
4840;DHT22;2434;48.486;7.964;2024-03-22T04:07:23;12.20;61.60
4840;DHT22;2434;48.486;7.964;2024-03-22T04:09:50;12.20;61.90
4840;DHT22;2434;48.486;7.964;2024-03-22T04:12:16;12.20;62.00
4840;DHT22;2434;48.486;7.964;2024-03-22T04:14:44;12.20;62.50
4840;DHT22;2434;48.486;7.964;2024-03-22T04:17:10;12.20;62.90
4840;DHT22;2434;48.486;7.964;2024-03-22T04:19:37;12.20;63.00
4840;DHT22;2434;48.486;7.964;2024-03-22T04:22:03;12.20;63.00
4840;DHT22;2434;48.486;7.964;2024-03-22T04:24:32;12.20;62.10
4840;DHT22;2434;48.486;7.964;2024-03-22T04:26:58;12.20;61.70
4840;DHT22;2434;48.486;7.964;2024-03-22T04:29:25;12.20;62.30
4840;DHT22;2434;48.486;7.964;2024-03-22T04:31:51;12.10;62.90
4840;DHT22;2434;48.486;7.964;2024-03-22T04:34:18;12.20;63.00
4840;DHT22;2434;48.486;7.964;2024-03-22T04:36:45;12.10;63.10
4840;DHT22;2434;48.486;7.964;2024-03-22T04:39:12;12.20;63.30
4840;DHT22;2434;48.486;7.964;2024-03-22T04:41:41;12.10;63.50
4840;DHT22;2434;48.486;7.964;2024-03-22T04:44:08;12.10;63.90
4840;DHT22;2434;48.486;7.964;2024-03-22T04:46:35;12.00;63.70
4840;DHT22;2434;48.486;7.964;2024-03-22T04:49:02;12.00;64.00
4840;DHT22;2434;48.486;7.964;2024-03-22T04:51:28;12.00;63.80
4840;DHT22;2434;48.486;7.964;2024-03-22T04:53:55;12.00;63.80
4840;DHT22;2434;48.486;7.964;2024-03-22T04:56:21;12.00;63.90
4840;DHT22;2434;48.486;7.964;2024-03-22T04:58:50;12.00;63.70
4840;DHT22;2434;48.486;7.964;2024-03-22T05:01:16;12.00;63.90
4840;DHT22;2434;48.486;7.964;2024-03-22T05:03:44;12.00;63.70
4840;DHT22;2434;48.486;7.964;2024-03-22T05:06:10;12.00;63.80
4840;DHT22;2434;48.486;7.964;2024-03-22T05:08:37;11.90;64.30
4840;DHT22;2434;48.486;7.964;2024-03-22T05:11:03;11.90;64.20
4840;DHT22;2434;48.486;7.964;2024-03-22T05:13:30;11.90;64.20
4840;DHT22;2434;48.486;7.964;2024-03-22T05:15:58;11.90;64.10
4840;DHT22;2434;48.486;7.964;2024-03-22T05:18:25;11.90;64.10
4840;DHT22;2434;48.486;7.964;2024-03-22T05:20:51;11.90;64.20
4840;DHT22;2434;48.486;7.964;2024-03-22T05:23:18;11.90;64.20
4840;DHT22;2434;48.486;7.964;2024-03-22T05:25:44;11.90;65.10
4840;DHT22;2434;48.486;7.964;2024-03-22T05:28:12;11.80;64.40
4840;DHT22;2434;48.486;7.964;2024-03-22T05:30:38;11.80;64.70
4840;DHT22;2434;48.486;7.964;2024-03-22T05:33:06;11.70;65.00
4840;DHT22;2434;48.486;7.964;2024-03-22T05:35:32;11.80;64.90
4840;DHT22;2434;48.486;7.964;2024-03-22T05:37:59;11.80;64.60
4840;DHT22;2434;48.486;7.964;2024-03-22T05:40:26;11.80;64.80
4840;DHT22;2434;48.486;7.964;2024-03-22T05:42:53;11.80;65.10
4840;DHT22;2434;48.486;7.964;2024-03-22T05:45:19;11.80;65.10
4840;DHT22;2434;48.486;7.964;2024-03-22T05:47:46;11.80;65.10
4840;DHT22;2434;48.486;7.964;2024-03-22T05:50:14;11.80;65.00
4840;DHT22;2434;48.486;7.964;2024-03-22T05:52:41;11.80;65.10
4840;DHT22;2434;48.486;7.964;2024-03-22T05:55:08;11.80;65.20
4840;DHT22;2434;48.486;7.964;2024-03-22T05:57:35;11.80;65.10
4840;DHT22;2434;48.486;7.964;2024-03-22T06:00:01;11.80;64.90
4840;DHT22;2434;48.486;7.964;2024-03-22T06:02:30;11.80;65.10
4840;DHT22;2434;48.486;7.964;2024-03-22T06:04:56;11.80;65.90
4840;DHT22;2434;48.486;7.964;2024-03-22T06:07:25;11.80;66.40
4840;DHT22;2434;48.486;7.964;2024-03-22T06:09:52;11.80;66.60
4840;DHT22;2434;48.486;7.964;2024-03-22T06:12:19;11.80;66.90
4840;DHT22;2434;48.486;7.964;2024-03-22T06:14:48;11.80;66.90
4840;DHT22;2434;48.486;7.964;2024-03-22T06:17:16;11.80;66.80
4840;DHT22;2434;48.486;7.964;2024-03-22T06:19:42;11.80;67.00
4840;DHT22;2434;48.486;7.964;2024-03-22T06:22:09;11.80;67.00
4840;DHT22;2434;48.486;7.964;2024-03-22T06:24:37;11.80;67.00
4840;DHT22;2434;48.486;7.964;2024-03-22T06:27:04;11.80;67.30
4840;DHT22;2434;48.486;7.964;2024-03-22T06:29:31;11.80;67.40
4840;DHT22;2434;48.486;7.964;2024-03-22T06:31:58;11.80;67.30
4840;DHT22;2434;48.486;7.964;2024-03-22T06:34:24;11.80;67.30
4840;DHT22;2434;48.486;7.964;2024-03-22T06:36:51;11.80;67.30
4840;DHT22;2434;48.486;7.964;2024-03-22T06:39:17;11.80;67.50
4840;DHT22;2434;48.486;7.964;2024-03-22T06:41:46;11.80;68.30
4840;DHT22;2434;48.486;7.964;2024-03-22T06:44:13;11.80;68.70
4840;DHT22;2434;48.486;7.964;2024-03-22T06:46:40;11.80;68.60
4840;DHT22;2434;48.486;7.964;2024-03-22T06:49:06;11.80;68.60
4840;DHT22;2434;48.486;7.964;2024-03-22T06:51:33;11.80;68.30
4840;DHT22;2434;48.486;7.964;2024-03-22T06:53:59;11.80;68.40
4840;DHT22;2434;48.486;7.964;2024-03-22T06:56:26;11.80;68.60
4840;DHT22;2434;48.486;7.964;2024-03-22T06:58:53;11.80;68.70
4840;DHT22;2434;48.486;7.964;2024-03-22T07:01:20;11.80;68.60
4840;DHT22;2434;48.486;7.964;2024-03-22T07:03:46;11.90;68.70
4840;DHT22;2434;48.486;7.964;2024-03-22T07:06:14;11.90;68.70
4840;DHT22;2434;48.486;7.964;2024-03-22T07:08:40;11.90;68.70
4840;DHT22;2434;48.486;7.964;2024-03-22T07:11:07;11.80;68.40
4840;DHT22;2434;48.486;7.964;2024-03-22T07:13:34;11.80;68.00
4840;DHT22;2434;48.486;7.964;2024-03-22T07:16:03;11.90;68.40
4840;DHT22;2434;48.486;7.964;2024-03-22T07:18:29;11.90;68.80
4840;DHT22;2434;48.486;7.964;2024-03-22T07:20:56;11.90;68.70
4840;DHT22;2434;48.486;7.964;2024-03-22T07:23:23;11.90;68.70
4840;DHT22;2434;48.486;7.964;2024-03-22T07:25:50;12.00;69.60
4840;DHT22;2434;48.486;7.964;2024-03-22T07:28:17;12.00;69.40
4840;DHT22;2434;48.486;7.964;2024-03-22T07:30:44;12.00;69.00
4840;DHT22;2434;48.486;7.964;2024-03-22T07:33:11;12.10;68.30
4840;DHT22;2434;48.486;7.964;2024-03-22T07:35:42;12.10;67.80
4840;DHT22;2434;48.486;7.964;2024-03-22T07:38:08;12.10;67.40
4840;DHT22;2434;48.486;7.964;2024-03-22T07:40:35;12.20;67.10
4840;DHT22;2434;48.486;7.964;2024-03-22T07:43:01;12.20;66.80
4840;DHT22;2434;48.486;7.964;2024-03-22T07:45:32;12.20;66.70
4840;DHT22;2434;48.486;7.964;2024-03-22T07:47:58;12.30;67.10
4840;DHT22;2434;48.486;7.964;2024-03-22T07:50:26;12.30;67.10
4840;DHT22;2434;48.486;7.964;2024-03-22T07:52:53;12.30;67.40
4840;DHT22;2434;48.486;7.964;2024-03-22T07:55:22;12.40;67.80
4840;DHT22;2434;48.486;7.964;2024-03-22T07:57:48;12.40;66.80
4840;DHT22;2434;48.486;7.964;2024-03-22T08:00:16;12.50;68.50
4840;DHT22;2434;48.486;7.964;2024-03-22T08:02:42;12.60;67.50
4840;DHT22;2434;48.486;7.964;2024-03-22T08:05:09;12.70;66.30
4840;DHT22;2434;48.486;7.964;2024-03-22T08:07:36;12.80;66.60
4840;DHT22;2434;48.486;7.964;2024-03-22T08:10:04;12.90;65.50
4840;DHT22;2434;48.486;7.964;2024-03-22T08:12:30;12.90;62.90
4840;DHT22;2434;48.486;7.964;2024-03-22T08:14:57;13.00;62.20
4840;DHT22;2434;48.486;7.964;2024-03-22T08:17:24;13.00;61.40
4840;DHT22;2434;48.486;7.964;2024-03-22T08:19:51;13.10;61.20
4840;DHT22;2434;48.486;7.964;2024-03-22T08:22:17;13.10;61.10
4840;DHT22;2434;48.486;7.964;2024-03-22T08:24:45;13.20;61.00
4840;DHT22;2434;48.486;7.964;2024-03-22T08:27:12;13.20;60.40
4840;DHT22;2434;48.486;7.964;2024-03-22T08:29:40;13.30;59.50
4840;DHT22;2434;48.486;7.964;2024-03-22T08:32:07;13.40;58.40
4840;DHT22;2434;48.486;7.964;2024-03-22T08:34:34;13.50;57.60
4840;DHT22;2434;48.486;7.964;2024-03-22T08:37:00;13.60;56.40
4840;DHT22;2434;48.486;7.964;2024-03-22T08:39:29;13.80;53.90
4840;DHT22;2434;48.486;7.964;2024-03-22T08:41:57;13.80;52.90
4840;DHT22;2434;48.486;7.964;2024-03-22T08:44:24;13.90;54.40
4840;DHT22;2434;48.486;7.964;2024-03-22T08:46:51;14.10;52.80
4840;DHT22;2434;48.486;7.964;2024-03-22T08:49:18;14.20;52.40
4840;DHT22;2434;48.486;7.964;2024-03-22T08:51:45;14.30;51.90
4840;DHT22;2434;48.486;7.964;2024-03-22T08:54:14;14.40;52.20
4840;DHT22;2434;48.486;7.964;2024-03-22T08:56:40;14.50;52.40
4840;DHT22;2434;48.486;7.964;2024-03-22T08:59:09;14.60;50.90
4840;DHT22;2434;48.486;7.964;2024-03-22T09:01:36;14.80;50.90
4840;DHT22;2434;48.486;7.964;2024-03-22T09:04:03;14.80;50.60
4840;DHT22;2434;48.486;7.964;2024-03-22T09:06:29;14.90;50.30
4840;DHT22;2434;48.486;7.964;2024-03-22T09:08:57;15.00;49.10
4840;DHT22;2434;48.486;7.964;2024-03-22T09:11:23;15.00;49.20
4840;DHT22;2434;48.486;7.964;2024-03-22T09:13:51;15.10;49.00
4840;DHT22;2434;48.486;7.964;2024-03-22T09:16:19;15.20;48.00
4840;DHT22;2434;48.486;7.964;2024-03-22T09:18:46;15.20;46.90
4840;DHT22;2434;48.486;7.964;2024-03-22T09:21:13;15.20;47.90
4840;DHT22;2434;48.486;7.964;2024-03-22T09:23:40;15.30;47.90
4840;DHT22;2434;48.486;7.964;2024-03-22T09:26:06;15.20;46.40
4840;DHT22;2434;48.486;7.964;2024-03-22T09:28:33;15.20;45.70
4840;DHT22;2434;48.486;7.964;2024-03-22T09:31:03;15.20;45.60
4840;DHT22;2434;48.486;7.964;2024-03-22T09:33:33;15.30;46.60
4840;DHT22;2434;48.486;7.964;2024-03-22T09:35:59;15.30;47.00
4840;DHT22;2434;48.486;7.964;2024-03-22T09:38:26;15.30;46.80
4840;DHT22;2434;48.486;7.964;2024-03-22T09:40:52;15.30;47.70
4840;DHT22;2434;48.486;7.964;2024-03-22T09:43:21;15.40;47.40
4840;DHT22;2434;48.486;7.964;2024-03-22T09:45:48;15.40;47.70
4840;DHT22;2434;48.486;7.964;2024-03-22T09:48:16;15.40;47.80
4840;DHT22;2434;48.486;7.964;2024-03-22T09:50:45;15.40;47.40
4840;DHT22;2434;48.486;7.964;2024-03-22T09:53:13;15.40;47.30
4840;DHT22;2434;48.486;7.964;2024-03-22T09:55:43;15.50;46.50
4840;DHT22;2434;48.486;7.964;2024-03-22T09:58:11;15.60;46.20
4840;DHT22;2434;48.486;7.964;2024-03-22T10:00:40;15.60;46.70
4840;DHT22;2434;48.486;7.964;2024-03-22T10:03:07;15.60;46.60
4840;DHT22;2434;48.486;7.964;2024-03-22T10:05:35;15.60;48.60
4840;DHT22;2434;48.486;7.964;2024-03-22T10:08:04;15.70;48.20
4840;DHT22;2434;48.486;7.964;2024-03-22T10:10:31;15.70;48.00
4840;DHT22;2434;48.486;7.964;2024-03-22T10:13:00;15.70;45.90
4840;DHT22;2434;48.486;7.964;2024-03-22T10:15:27;15.70;44.80
4840;DHT22;2434;48.486;7.964;2024-03-22T10:17:57;15.80;44.20
4840;DHT22;2434;48.486;7.964;2024-03-22T10:20:23;15.90;44.50
4840;DHT22;2434;48.486;7.964;2024-03-22T10:22:55;15.90;44.30
4840;DHT22;2434;48.486;7.964;2024-03-22T10:25:23;15.90;44.00
4840;DHT22;2434;48.486;7.964;2024-03-22T10:27:50;16.00;42.80
4840;DHT22;2434;48.486;7.964;2024-03-22T10:30:17;16.00;41.50
4840;DHT22;2434;48.486;7.964;2024-03-22T10:32:46;16.10;40.10
4840;DHT22;2434;48.486;7.964;2024-03-22T10:35:16;16.10;37.50
4840;DHT22;2434;48.486;7.964;2024-03-22T10:37:42;16.20;36.80
4840;DHT22;2434;48.486;7.964;2024-03-22T10:40:10;16.40;37.30
4840;DHT22;2434;48.486;7.964;2024-03-22T10:42:39;16.40;36.90
4840;DHT22;2434;48.486;7.964;2024-03-22T10:45:08;16.50;36.30
4840;DHT22;2434;48.486;7.964;2024-03-22T10:47:36;16.40;37.20
4840;DHT22;2434;48.486;7.964;2024-03-22T10:50:05;16.40;35.90
4840;DHT22;2434;48.486;7.964;2024-03-22T10:52:34;16.40;35.00
4840;DHT22;2434;48.486;7.964;2024-03-22T10:55:04;16.40;35.70
4840;DHT22;2434;48.486;7.964;2024-03-22T10:57:32;16.50;36.50
4840;DHT22;2434;48.486;7.964;2024-03-22T11:00:08;16.60;36.50
4840;DHT22;2434;48.486;7.964;2024-03-22T11:02:36;16.60;36.80
4840;DHT22;2434;48.486;7.964;2024-03-22T11:05:03;16.70;37.40
4840;DHT22;2434;48.486;7.964;2024-03-22T11:07:30;16.70;37.10
4840;DHT22;2434;48.486;7.964;2024-03-22T11:09:57;16.70;36.70
4840;DHT22;2434;48.486;7.964;2024-03-22T11:12:25;16.70;35.30
4840;DHT22;2434;48.486;7.964;2024-03-22T11:14:53;16.80;34.80
4840;DHT22;2434;48.486;7.964;2024-03-22T11:17:20;16.90;31.90
4840;DHT22;2434;48.486;7.964;2024-03-22T11:19:51;16.90;31.80
4840;DHT22;2434;48.486;7.964;2024-03-22T11:22:17;17.20;26.90
4840;DHT22;2434;48.486;7.964;2024-03-22T11:24:45;17.40;26.50
4840;DHT22;2434;48.486;7.964;2024-03-22T11:27:11;17.60;26.50
4840;DHT22;2434;48.486;7.964;2024-03-22T11:29:39;17.70;26.50
4840;DHT22;2434;48.486;7.964;2024-03-22T11:32:07;17.80;28.20
4840;DHT22;2434;48.486;7.964;2024-03-22T11:34:36;17.90;25.00
4840;DHT22;2434;48.486;7.964;2024-03-22T11:37:05;18.00;25.10
4840;DHT22;2434;48.486;7.964;2024-03-22T11:39:33;18.00;24.90
4840;DHT22;2434;48.486;7.964;2024-03-22T11:42:01;18.10;26.00
4840;DHT22;2434;48.486;7.964;2024-03-22T11:44:28;18.20;26.50
4840;DHT22;2434;48.486;7.964;2024-03-22T11:46:55;18.30;26.10
4840;DHT22;2434;48.486;7.964;2024-03-22T11:49:22;18.50;26.90
4840;DHT22;2434;48.486;7.964;2024-03-22T11:51:51;18.50;27.00
4840;DHT22;2434;48.486;7.964;2024-03-22T11:54:19;18.60;26.70
4840;DHT22;2434;48.486;7.964;2024-03-22T11:56:45;18.70;26.70
4840;DHT22;2434;48.486;7.964;2024-03-22T11:59:13;18.70;26.30
4840;DHT22;2434;48.486;7.964;2024-03-22T12:01:40;18.60;26.90
4840;DHT22;2434;48.486;7.964;2024-03-22T12:04:07;18.60;26.30
4840;DHT22;2434;48.486;7.964;2024-03-22T12:06:34;18.60;27.90
4840;DHT22;2434;48.486;7.964;2024-03-22T12:09:03;18.60;27.40
4840;DHT22;2434;48.486;7.964;2024-03-22T12:11:29;18.50;27.70
4840;DHT22;2434;48.486;7.964;2024-03-22T12:13:57;18.50;29.00
4840;DHT22;2434;48.486;7.964;2024-03-22T12:16:23;18.50;29.70
4840;DHT22;2434;48.486;7.964;2024-03-22T12:18:50;18.40;29.80
4840;DHT22;2434;48.486;7.964;2024-03-22T12:21:17;18.30;28.20
4840;DHT22;2434;48.486;7.964;2024-03-22T12:23:43;18.30;28.00
4840;DHT22;2434;48.486;7.964;2024-03-22T12:26:13;18.30;28.20
4840;DHT22;2434;48.486;7.964;2024-03-22T12:28:39;18.30;28.80
4840;DHT22;2434;48.486;7.964;2024-03-22T12:31:08;18.30;28.10
4840;DHT22;2434;48.486;7.964;2024-03-22T12:33:36;18.30;28.00
4840;DHT22;2434;48.486;7.964;2024-03-22T12:36:04;18.30;27.00
4840;DHT22;2434;48.486;7.964;2024-03-22T12:38:30;18.20;27.10
4840;DHT22;2434;48.486;7.964;2024-03-22T12:40:57;18.20;26.70
4840;DHT22;2434;48.486;7.964;2024-03-22T12:43:24;18.20;27.90
4840;DHT22;2434;48.486;7.964;2024-03-22T12:45:52;18.20;27.00
4840;DHT22;2434;48.486;7.964;2024-03-22T12:48:18;18.20;24.90
4840;DHT22;2434;48.486;7.964;2024-03-22T12:50:45;18.20;25.40
4840;DHT22;2434;48.486;7.964;2024-03-22T12:53:11;18.20;24.20
4840;DHT22;2434;48.486;7.964;2024-03-22T12:55:38;18.30;23.60
4840;DHT22;2434;48.486;7.964;2024-03-22T12:58:04;18.30;24.50
4840;DHT22;2434;48.486;7.964;2024-03-22T13:00:32;18.30;24.80
4840;DHT22;2434;48.486;7.964;2024-03-22T13:02:59;18.30;26.20
4840;DHT22;2434;48.486;7.964;2024-03-22T13:05:26;18.20;26.30
4840;DHT22;2434;48.486;7.964;2024-03-22T13:07:52;18.20;26.60
4840;DHT22;2434;48.486;7.964;2024-03-22T13:10:19;18.20;26.60
4840;DHT22;2434;48.486;7.964;2024-03-22T13:12:46;18.20;26.40
4840;DHT22;2434;48.486;7.964;2024-03-22T13:15:13;18.20;26.80
4840;DHT22;2434;48.486;7.964;2024-03-22T13:17:41;18.20;25.80
4840;DHT22;2434;48.486;7.964;2024-03-22T13:20:09;18.30;26.60
4840;DHT22;2434;48.486;7.964;2024-03-22T13:22:36;18.20;27.00
4840;DHT22;2434;48.486;7.964;2024-03-22T13:25:04;18.30;26.30
4840;DHT22;2434;48.486;7.964;2024-03-22T13:27:32;18.30;26.80
4840;DHT22;2434;48.486;7.964;2024-03-22T13:29:59;18.40;27.00
4840;DHT22;2434;48.486;7.964;2024-03-22T13:32:25;18.50;26.90
4840;DHT22;2434;48.486;7.964;2024-03-22T13:34:54;18.60;26.30
4840;DHT22;2434;48.486;7.964;2024-03-22T13:37:20;18.60;26.70
4840;DHT22;2434;48.486;7.964;2024-03-22T13:39:48;18.60;26.70
4840;DHT22;2434;48.486;7.964;2024-03-22T13:42:15;18.60;27.00
4840;DHT22;2434;48.486;7.964;2024-03-22T13:44:42;18.60;27.40
4840;DHT22;2434;48.486;7.964;2024-03-22T13:47:08;18.60;27.00
4840;DHT22;2434;48.486;7.964;2024-03-22T13:49:35;18.60;27.10
4840;DHT22;2434;48.486;7.964;2024-03-22T13:52:03;18.60;26.60
4840;DHT22;2434;48.486;7.964;2024-03-22T13:54:30;18.60;26.70
4840;DHT22;2434;48.486;7.964;2024-03-22T13:56:57;18.60;26.70
4840;DHT22;2434;48.486;7.964;2024-03-22T13:59:24;18.50;25.60
4840;DHT22;2434;48.486;7.964;2024-03-22T14:01:50;18.50;26.20
4840;DHT22;2434;48.486;7.964;2024-03-22T14:04:17;18.40;27.00
4840;DHT22;2434;48.486;7.964;2024-03-22T14:06:45;18.40;27.20
4840;DHT22;2434;48.486;7.964;2024-03-22T14:09:13;18.40;27.10
4840;DHT22;2434;48.486;7.964;2024-03-22T14:11:41;18.40;28.10
4840;DHT22;2434;48.486;7.964;2024-03-22T14:14:09;18.40;27.00
4840;DHT22;2434;48.486;7.964;2024-03-22T14:16:37;18.40;26.10
4840;DHT22;2434;48.486;7.964;2024-03-22T14:19:04;18.50;26.10
4840;DHT22;2434;48.486;7.964;2024-03-22T14:21:30;18.50;25.50
4840;DHT22;2434;48.486;7.964;2024-03-22T14:23:58;18.50;25.90
4840;DHT22;2434;48.486;7.964;2024-03-22T14:26:25;18.50;25.70
4840;DHT22;2434;48.486;7.964;2024-03-22T14:28:53;18.50;26.20
4840;DHT22;2434;48.486;7.964;2024-03-22T14:31:19;18.50;25.60
4840;DHT22;2434;48.486;7.964;2024-03-22T14:33:47;18.60;25.40
4840;DHT22;2434;48.486;7.964;2024-03-22T14:36:14;18.60;25.30
4840;DHT22;2434;48.486;7.964;2024-03-22T14:38:42;18.70;25.70
4840;DHT22;2434;48.486;7.964;2024-03-22T14:41:09;18.70;25.10
4840;DHT22;2434;48.486;7.964;2024-03-22T14:43:38;18.70;25.00
4840;DHT22;2434;48.486;7.964;2024-03-22T14:46:04;18.70;24.60
4840;DHT22;2434;48.486;7.964;2024-03-22T14:48:31;18.60;24.70
4840;DHT22;2434;48.486;7.964;2024-03-22T14:50:57;18.60;24.20
4840;DHT22;2434;48.486;7.964;2024-03-22T14:53:24;18.60;24.80
4840;DHT22;2434;48.486;7.964;2024-03-22T14:55:54;18.60;24.90
4840;DHT22;2434;48.486;7.964;2024-03-22T14:58:24;18.60;24.90
4840;DHT22;2434;48.486;7.964;2024-03-22T15:00:52;18.60;25.70
4840;DHT22;2434;48.486;7.964;2024-03-22T15:03:20;18.60;25.40
4840;DHT22;2434;48.486;7.964;2024-03-22T15:05:46;18.60;25.30
4840;DHT22;2434;48.486;7.964;2024-03-22T15:08:13;18.60;25.50
4840;DHT22;2434;48.486;7.964;2024-03-22T15:10:39;18.60;24.80
4840;DHT22;2434;48.486;7.964;2024-03-22T15:13:06;18.70;24.00
4840;DHT22;2434;48.486;7.964;2024-03-22T15:15:33;18.60;24.60
4840;DHT22;2434;48.486;7.964;2024-03-22T15:18:01;18.60;23.70
4840;DHT22;2434;48.486;7.964;2024-03-22T15:20:27;18.70;23.60
4840;DHT22;2434;48.486;7.964;2024-03-22T15:22:55;18.60;23.20
4840;DHT22;2434;48.486;7.964;2024-03-22T15:25:21;18.70;24.00
4840;DHT22;2434;48.486;7.964;2024-03-22T15:27:48;18.70;23.80
4840;DHT22;2434;48.486;7.964;2024-03-22T15:30:14;18.60;23.40
4840;DHT22;2434;48.486;7.964;2024-03-22T15:32:43;18.70;23.60
4840;DHT22;2434;48.486;7.964;2024-03-22T15:35:11;18.70;23.60
4840;DHT22;2434;48.486;7.964;2024-03-22T15:37:39;18.70;23.40
4840;DHT22;2434;48.486;7.964;2024-03-22T15:40:07;18.70;23.00
4840;DHT22;2434;48.486;7.964;2024-03-22T15:42:37;18.70;24.00
4840;DHT22;2434;48.486;7.964;2024-03-22T15:45:05;18.60;23.70
4840;DHT22;2434;48.486;7.964;2024-03-22T15:47:32;18.70;23.70
4840;DHT22;2434;48.486;7.964;2024-03-22T15:49:59;18.70;24.10
4840;DHT22;2434;48.486;7.964;2024-03-22T15:52:27;18.70;24.10
4840;DHT22;2434;48.486;7.964;2024-03-22T15:54:54;18.70;24.20
4840;DHT22;2434;48.486;7.964;2024-03-22T15:57:21;18.70;23.90
4840;DHT22;2434;48.486;7.964;2024-03-22T15:59:47;18.70;24.40
4840;DHT22;2434;48.486;7.964;2024-03-22T16:02:15;18.70;25.00